Ana Sayfa
METAR-TAF:

METAR-TAF

Havaalanları :

Tebük, Suudi Arabistan

Enlem: 28-22N, Boylam: 036-36E, yükseklik: 778 m

Güncel hava durumu gözlemi

Rapor saat 09:00 UTC de 36 dakika önce yapıldı.
Rüzgar kuzeydan 8 kt
Sıcaklık 37°C
Nem 10%
Basınç 1009 hPa
Görüş mesafesi 10 km veya daha fazla
1500 m altında bulut yok ve kümülonimbus yok

METAR: OETB 250900Z 35008KT CAVOK 37/00 Q1009 NOSIG

Saat: 12:36 (09:36 UTC)

Tahmin

Rapor saat 23:00 UTC de 10 saat ve 36 dakika önce yapıldı.
Ayın 25'si saat 00 UTC'den ayın 26'si saat 06 UTC'ye kadar geçerli Tahmin
Rüzgar değişken yönden 3 kt
Görüş mesafesi 10 km veya daha fazla
1500 m altında bulut yok ve kümülonimbus yok
Dönüşüyor
ayın 25'si saat 08 UTC'den ayın 25'si saat 10 UTC'ye kadar
Rüzgar kuzey/kuzeybatıdan 10 kt
Dönüşüyor
ayın 26'si saat 00 UTC'den ayın 26'si saat 02 UTC'ye kadar
Rüzgar değişken yönden 3 kt

TAF: OETB 242300Z 2500/2606 VRB03KT CAVOK BECMG 2508/2510 34010KT BECMG 2600/2602 VRB03KT

4.000'den fazla havaalanı için hava durumu gözlemleri ve tahminleri (METAR ve TAF raporları).

Kullanılabilir istasyonlar harita üzerinde sarı ve kırmızı noktalarla gösterilir.

İstasyonun adını görmek için fareyi noktanın üzerinde gezdirin.

Sonrasında hava gözlem ve tahminlerini görmek için tıklayın.

Haritayı değiştirmek için: yaklaştırmak için siyah artı işaretli yeşil düğmeye ve uzaklaştırmak için de eksi işaretli düğmeye hızla tıklayın; bitişik haritalar için yeşil okları kullanın.


METAR-TAF: